Time;durP1;ratioP1;P1;durP2;ratioP2;P2;SDS_P1;SDS_P2;PMS_P1;PMS_P2;Temp;Humidity;BMP_temperature;BMP_pressure;BME280_temperature;BME280_humidity;BME280_pressure;Samples;Min_cycle;Max_cycle;Signal;HPM_P1;HPM_P2
2022/08/14 00:01:59;;;;;;;2.53;2.42;;;25.60;53.80;;;;;;5013195;28;20308;-63
2022/08/14 00:04:24;;;;;;;2.75;2.55;;;25.60;53.70;;;;;;5013525;28;20179;-62
2022/08/14 00:06:50;;;;;;;3.25;2.95;;;25.60;53.70;;;;;;5012983;28;20267;-62
2022/08/14 00:09:15;;;;;;;2.78;2.58;;;25.60;53.70;;;;;;5013063;28;20215;-62
2022/08/14 00:11:41;;;;;;;3.00;2.80;;;25.60;53.80;;;;;;5013723;28;20179;-63
2022/08/14 00:14:06;;;;;;;3.00;2.80;;;25.60;53.70;;;;;;5012823;28;20199;-63
2022/08/14 00:16:32;;;;;;;2.97;2.70;;;25.60;53.70;;;;;;5013239;28;20657;-62
2022/08/14 00:18:58;;;;;;;3.00;2.80;;;25.60;53.70;;;;;;5013034;28;20232;-63
2022/08/14 00:21:23;;;;;;;2.95;2.72;;;25.60;53.70;;;;;;5012558;28;20172;-63
2022/08/14 00:23:50;;;;;;;3.38;3.08;;;25.60;53.70;;;;;;5013090;28;20172;-62
2022/08/14 00:26:16;;;;;;;2.97;2.72;;;25.60;53.80;;;;;;5013374;28;20176;-62
2022/08/14 00:28:41;;;;;;;2.72;2.53;;;25.60;53.80;;;;;;5012498;28;20629;-62
2022/08/14 00:31:07;;;;;;;3.13;2.85;;;25.60;53.80;;;;;;5013198;28;20169;-62
2022/08/14 00:33:33;;;;;;;2.85;2.65;;;25.60;53.80;;;;;;5013178;28;20180;-62
2022/08/14 00:35:58;;;;;;;3.72;3.13;;;25.60;53.80;;;;;;5012340;28;20180;-63
2022/08/14 00:38:24;;;;;;;3.65;3.15;;;25.60;53.80;;;;;;5012918;28;20246;-62
2022/08/14 00:40:49;;;;;;;3.20;3.00;;;25.60;53.80;;;;;;5012590;28;20578;-62
2022/08/14 00:43:15;;;;;;;2.90;2.70;;;25.60;53.80;;;;;;5012898;28;20173;-63
2022/08/14 00:45:41;;;;;;;3.53;3.33;;;25.60;53.80;;;;;;5013213;28;20598;-63
2022/08/14 00:48:06;;;;;;;3.17;2.92;;;25.60;53.80;;;;;;5011445;28;20215;-62
2022/08/14 00:50:32;;;;;;;3.40;3.10;;;25.60;53.80;;;;;;4995132;28;20259;-62
2022/08/14 00:53:01;;;;;;;3.45;3.15;;;25.50;53.80;;;;;;5012757;28;20263;-62
2022/08/14 00:55:27;;;;;;;3.65;3.40;;;25.60;53.80;;;;;;5012302;28;20642;-62
2022/08/14 01:00:37;;;;;;;3.83;3.53;;;25.60;53.80;;;;;;5013126;28;20207;-63
2022/08/14 01:03:04;;;;;;;3.53;3.22;;;25.60;53.80;;;;;;5012263;28;21116;-62
2022/08/14 01:05:30;;;;;;;3.40;3.20;;;25.60;53.80;;;;;;5012462;28;20662;-63
2022/08/14 01:07:58;;;;;;;3.78;3.47;;;25.60;53.90;;;;;;4994987;28;20212;-63
2022/08/14 01:10:49;;;;;;;3.45;3.17;;;25.60;53.80;;;;;;5012450;28;20267;-63
2022/08/14 01:13:13;;;;;;;3.45;3.15;;;25.60;53.80;;;;;;5012802;28;20670;-63
2022/08/14 01:15:38;;;;;;;3.50;3.20;;;25.60;53.80;;;;;;5012705;28;20184;-63
2022/08/14 01:21:10;;;;;;;3.75;3.40;;;25.60;53.90;;;;;;5012878;28;20191;-63
2022/08/14 01:23:38;;;;;;;3.85;3.55;;;25.50;53.80;;;;;;4997847;28;20192;-63
2022/08/14 01:26:04;;;;;;;3.55;3.30;;;25.50;53.90;;;;;;5012147;28;20675;-63
2022/08/14 01:28:31;;;;;;;3.88;3.58;;;25.50;53.80;;;;;;5012727;28;20223;-63
2022/08/14 01:30:57;;;;;;;4.03;3.67;;;25.50;53.80;;;;;;5012178;28;20302;-62
2022/08/14 01:33:28;;;;;;;3.28;3.08;;;25.50;53.80;;;;;;4994837;28;20512;-63
2022/08/14 01:35:59;;;;;;;3.55;3.35;;;25.50;53.90;;;;;;5012536;28;20176;-62
2022/08/14 01:38:25;;;;;;;3.92;3.63;;;25.60;54.00;;;;;;5012139;28;20270;-62
2022/08/14 01:40:51;;;;;;;3.85;3.55;;;25.50;53.90;;;;;;5012150;28;20179;-62
2022/08/14 01:43:17;;;;;;;3.90;3.58;;;25.50;53.80;;;;;;5012682;28;20176;-62
2022/08/14 01:45:43;;;;;;;3.88;3.58;;;25.50;53.90;;;;;;5012046;28;20188;-63
2022/08/14 01:48:09;;;;;;;3.92;3.63;;;25.50;53.80;;;;;;5012583;28;20209;-62
2022/08/14 01:50:35;;;;;;;3.65;3.45;;;25.50;53.80;;;;;;5012403;28;20208;-62
2022/08/14 01:53:01;;;;;;;3.85;3.60;;;25.50;53.90;;;;;;5011602;28;20205;-62
2022/08/14 01:55:29;;;;;;;3.95;3.65;;;25.50;53.90;;;;;;5012235;28;20639;-62
2022/08/14 01:57:54;;;;;;;3.20;3.00;;;25.50;53.90;;;;;;5012447;28;20181;-62
2022/08/14 02:00:20;;;;;;;4.15;3.85;;;25.50;53.90;;;;;;5014624;28;20600;-62
2022/08/14 02:02:45;;;;;;;4.38;4.07;;;25.50;53.90;;;;;;5015865;28;20176;-62
2022/08/14 02:05:12;;;;;;;3.63;3.42;;;25.50;53.90;;;;;;5015939;28;20177;-62
2022/08/14 02:07:37;;;;;;;4.03;3.72;;;25.50;53.90;;;;;;5015356;28;20184;-63
2022/08/14 02:10:04;;;;;;;4.53;4.13;;;25.50;53.90;;;;;;5015624;28;20700;-63
2022/08/14 02:12:29;;;;;;;3.72;3.42;;;25.50;53.90;;;;;;5015345;28;20184;-64
2022/08/14 02:14:55;;;;;;;4.18;3.80;;;25.50;53.90;;;;;;5015462;28;20172;-64
2022/08/14 02:17:22;;;;;;;4.82;4.43;;;25.40;53.90;;;;;;5016094;28;20176;-64
2022/08/14 02:19:47;;;;;;;4.28;3.88;;;25.40;53.90;;;;;;5014798;28;20236;-64
2022/08/14 02:22:13;;;;;;;4.32;4.03;;;25.50;54.00;;;;;;5015248;28;20177;-64
2022/08/14 02:24:39;;;;;;;4.70;4.40;;;25.40;53.90;;;;;;5015312;28;20177;-63
2022/08/14 02:27:04;;;;;;;4.70;4.40;;;25.40;53.90;;;;;;5014885;28;20180;-64
2022/08/14 02:29:31;;;;;;;4.68;4.38;;;25.40;53.90;;;;;;5015143;28;20212;-63
2022/08/14 02:31:57;;;;;;;4.28;3.90;;;25.40;53.90;;;;;;5015053;28;20538;-63
2022/08/14 02:34:25;;;;;;;4.20;3.90;;;25.40;53.90;;;;;;5014674;28;20176;-63
2022/08/14 02:36:51;;;;;;;4.47;3.95;;;25.40;53.90;;;;;;5014792;28;20181;-63
2022/08/14 02:39:17;;;;;;;4.43;4.13;;;25.40;54.00;;;;;;5015279;28;20181;-63
2022/08/14 02:41:42;;;;;;;4.13;3.83;;;25.40;53.90;;;;;;5014689;28;20179;-64
2022/08/14 02:44:10;;;;;;;4.03;3.72;;;25.40;54.00;;;;;;5014683;28;20185;-63
2022/08/14 02:46:39;;;;;;;4.47;4.18;;;25.40;54.00;;;;;;5015069;28;20192;-63
2022/08/14 02:49:08;;;;;;;4.57;4.18;;;25.40;54.00;;;;;;5014056;28;20259;-63
2022/08/14 02:51:34;;;;;;;4.53;4.22;;;25.40;54.00;;;;;;5014774;28;20569;-63
2022/08/14 02:54:00;;;;;;;4.75;4.35;;;25.40;54.00;;;;;;5014888;28;20176;-63
2022/08/14 02:56:26;;;;;;;4.82;4.43;;;25.40;54.00;;;;;;5014035;28;20643;-63
2022/08/14 02:58:52;;;;;;;4.40;4.07;;;25.40;54.00;;;;;;5014783;28;20195;-63
2022/08/14 03:01:19;;;;;;;4.65;4.35;;;25.40;54.10;;;;;;5014795;28;20697;-62
2022/08/14 03:03:48;;;;;;;4.88;4.47;;;25.40;54.10;;;;;;5013901;28;20259;-63
2022/08/14 03:06:14;;;;;;;4.63;4.32;;;25.40;54.10;;;;;;5014517;28;20653;-62
2022/08/14 03:08:40;;;;;;;4.60;4.30;;;25.40;54.10;;;;;;5014246;28;20307;-62
2022/08/14 03:11:08;;;;;;;4.63;4.32;;;25.40;54.10;;;;;;5013461;28;20342;-63
2022/08/14 03:13:41;;;;;;;5.05;4.65;;;25.40;54.10;;;;;;5014550;28;20230;-63
2022/08/14 03:16:09;;;;;;;4.70;4.30;;;25.40;54.10;;;;;;5013825;28;20631;-63
2022/08/14 03:18:36;;;;;;;4.75;4.40;;;25.40;54.10;;;;;;5013864;28;20683;-63
2022/08/14 03:21:06;;;;;;;4.80;4.50;;;25.40;54.10;;;;;;4997007;28;20180;-63
2022/08/14 03:23:34;;;;;;;4.30;4.00;;;25.40;54.10;;;;;;5013934;28;20185;-63
2022/08/14 03:25:59;;;;;;;4.95;4.63;;;25.40;54.10;;;;;;5013953;28;20180;-63
2022/08/14 03:28:28;;;;;;;4.95;4.55;;;25.40;54.10;;;;;;5014174;28;20216;-63
2022/08/14 03:30:54;;;;;;;5.15;4.80;;;25.40;54.10;;;;;;5013361;28;20180;-63
2022/08/14 03:33:20;;;;;;;5.38;4.97;;;25.40;54.10;;;;;;5014049;28;20177;-63
2022/08/14 03:35:45;;;;;;;4.35;4.05;;;25.40;54.10;;;;;;5014125;28;20726;-63
2022/08/14 03:38:11;;;;;;;4.75;4.45;;;25.40;54.10;;;;;;5013540;28;20179;-63
2022/08/14 03:40:39;;;;;;;4.97;4.57;;;25.40;54.10;;;;;;5014080;28;20223;-63
2022/08/14 03:43:06;;;;;;;4.95;4.60;;;25.30;54.10;;;;;;5013739;28;20638;-63
2022/08/14 03:45:34;;;;;;;4.90;4.50;;;25.40;54.80;;;;;;5013208;28;20184;-63
2022/08/14 03:48:03;;;;;;;5.28;4.88;;;25.30;54.10;;;;;;5013863;28;20581;-63
2022/08/14 03:50:31;;;;;;;5.28;4.88;;;25.30;54.10;;;;;;5013760;28;20567;-62
2022/08/14 03:52:57;;;;;;;4.93;4.63;;;25.40;54.20;;;;;;5013135;28;20191;-63
2022/08/14 03:55:23;;;;;;;4.90;4.50;;;25.30;54.10;;;;;;5013766;28;20606;-63
2022/08/14 03:57:48;;;;;;;5.03;4.63;;;25.30;54.10;;;;;;5013128;28;20651;-63
2022/08/14 04:00:14;;;;;;;5.00;4.60;;;25.30;54.20;;;;;;5013448;28;20226;-63
2022/08/14 04:02:39;;;;;;;4.90;4.60;;;25.30;54.10;;;;;;5013901;28;20263;-63
2022/08/14 04:05:08;;;;;;;5.03;4.63;;;25.30;54.20;;;;;;5013159;28;20183;-63
2022/08/14 04:07:34;;;;;;;4.97;4.63;;;25.30;54.10;;;;;;5013403;28;20195;-63
2022/08/14 04:10:00;;;;;;;5.55;5.15;;;25.30;54.10;;;;;;5013345;28;20338;-63
2022/08/14 04:12:25;;;;;;;4.82;4.53;;;25.30;54.20;;;;;;5012925;28;20696;-63
2022/08/14 04:14:51;;;;;;;5.47;5.07;;;25.40;54.20;;;;;;5012977;28;20180;-63
2022/08/14 04:17:18;;;;;;;5.32;4.93;;;25.30;54.20;;;;;;5013285;28;20190;-63
2022/08/14 04:19:45;;;;;;;5.55;5.07;;;25.30;54.20;;;;;;5012491;28;20232;-63
2022/08/14 04:22:11;;;;;;;5.72;5.25;;;25.30;54.20;;;;;;5013194;28;20242;-63
2022/08/14 04:24:37;;;;;;;5.43;5.03;;;25.30;54.20;;;;;;5013276;28;20567;-62
2022/08/14 04:27:02;;;;;;;4.95;4.65;;;25.30;54.20;;;;;;5012515;28;20208;-62
2022/08/14 04:29:28;;;;;;;5.80;5.40;;;25.30;54.20;;;;;;5013040;28;20247;-62
2022/08/14 04:31:53;;;;;;;6.63;5.97;;;25.30;54.20;;;;;;5013279;28;20172;-62
2022/08/14 04:34:19;;;;;;;4.80;4.50;;;25.30;54.20;;;;;;5012547;28;20184;-63
2022/08/14 04:44:57;;;;;;;5.50;5.15;;;25.30;54.20;;;;;;5012999;28;20769;-62
2022/08/14 04:50:06;;;;;;;5.40;5.00;;;25.30;54.20;;;;;;5012756;28;20579;-63
2022/08/14 04:52:32;;;;;;;5.60;5.20;;;25.30;54.20;;;;;;5012784;28;20173;-62
2022/08/14 04:54:58;;;;;;;5.63;5.13;;;25.30;54.20;;;;;;5012515;28;20192;-62
2022/08/14 04:57:24;;;;;;;5.70;5.30;;;25.30;54.20;;;;;;5012828;28;20585;-63
2022/08/14 04:59:51;;;;;;;5.55;5.15;;;25.30;54.20;;;;;;4995410;28;20180;-62
2022/08/14 05:02:17;;;;;;;5.88;5.47;;;25.30;54.20;;;;;;5012285;28;20173;-63
2022/08/14 05:04:42;;;;;;;5.97;5.47;;;25.30;54.20;;;;;;5012949;28;20249;-63
2022/08/14 05:07:08;;;;;;;5.72;5.22;;;25.30;54.20;;;;;;5012729;28;20185;-63
2022/08/14 05:09:33;;;;;;;5.53;5.13;;;25.30;54.20;;;;;;5012136;28;20212;-63
2022/08/14 05:11:59;;;;;;;4.90;4.55;;;25.30;54.10;;;;;;5012626;28;20173;-63
2022/08/14 05:14:25;;;;;;;6.00;5.40;;;25.30;54.10;;;;;;5012823;28;20271;-63
2022/08/14 05:16:51;;;;;;;5.68;5.28;;;25.30;54.10;;;;;;5011935;28;20172;-63
2022/08/14 05:19:16;;;;;;;5.85;5.35;;;25.30;54.10;;;;;;5012463;28;20563;-63
2022/08/14 05:21:42;;;;;;;5.68;5.28;;;25.30;54.10;;;;;;5012654;28;20173;-64
2022/08/14 05:24:10;;;;;;;5.45;5.05;;;25.30;54.10;;;;;;5012107;28;20186;-63
2022/08/14 05:26:39;;;;;;;6.03;5.60;;;25.30;54.10;;;;;;5012830;28;20260;-63
2022/08/14 05:29:06;;;;;;;6.38;5.97;;;25.30;54.10;;;;;;5012491;28;20287;-63
2022/08/14 05:31:31;;;;;;;5.93;5.43;;;25.30;54.10;;;;;;5011957;28;20177;-63
2022/08/14 05:33:57;;;;;;;6.32;5.72;;;25.30;54.10;;;;;;5013514;28;20544;-63
2022/08/14 05:36:23;;;;;;;5.57;5.20;;;25.30;54.10;;;;;;5015674;28;20169;-64
2022/08/14 05:38:49;;;;;;;5.80;5.40;;;25.30;54.10;;;;;;5016165;28;20184;-64
2022/08/14 05:41:16;;;;;;;5.78;5.28;;;25.30;54.80;;;;;;5016453;28;20180;-64
2022/08/14 05:43:42;;;;;;;5.88;5.47;;;25.30;54.20;;;;;;5015699;28;20651;-64
2022/08/14 05:46:11;;;;;;;6.15;5.65;;;25.30;54.10;;;;;;5016057;28;20199;-64
2022/08/14 05:48:37;;;;;;;5.47;5.07;;;25.30;54.10;;;;;;5016042;28;20283;-63
2022/08/14 05:51:02;;;;;;;6.28;5.78;;;25.30;54.10;;;;;;5015616;28;20626;-63
2022/08/14 05:53:28;;;;;;;6.63;6.03;;;25.30;54.10;;;;;;5016024;28;20188;-64
2022/08/14 05:55:54;;;;;;;5.68;5.28;;;25.40;54.10;;;;;;5016046;28;20176;-63
2022/08/14 05:58:20;;;;;;;5.60;5.20;;;25.40;54.10;;;;;;5015272;28;20649;-63
2022/08/14 06:00:45;;;;;;;5.93;5.53;;;25.40;54.10;;;;;;5015824;28;20192;-64
2022/08/14 06:03:15;;;;;;;5.32;4.93;;;25.40;54.10;;;;;;5015870;28;20338;-63
2022/08/14 06:05:42;;;;;;;5.60;5.20;;;25.40;54.10;;;;;;5015362;28;20219;-63
2022/08/14 06:08:15;;;;;;;5.75;5.35;;;25.40;54.10;;;;;;5015735;28;20230;-63
2022/08/14 06:10:40;;;;;;;5.85;5.45;;;25.40;54.10;;;;;;5015893;28;20188;-63
2022/08/14 06:13:06;;;;;;;6.18;5.72;;;25.40;54.00;;;;;;5014851;28;20168;-63
2022/08/14 06:15:31;;;;;;;5.90;5.50;;;25.40;54.10;;;;;;5015558;28;20187;-63
2022/08/14 06:17:57;;;;;;;5.93;5.43;;;25.40;54.10;;;;;;5015146;28;20247;-63
2022/08/14 06:20:23;;;;;;;6.15;5.65;;;25.40;54.10;;;;;;5015126;28;20631;-63
2022/08/14 06:22:48;;;;;;;5.72;5.32;;;25.40;54.10;;;;;;5015579;28;20542;-63
2022/08/14 06:25:14;;;;;;;6.47;5.97;;;25.40;54.10;;;;;;5015710;28;20172;-63
2022/08/14 06:27:44;;;;;;;6.45;6.00;;;25.40;54.00;;;;;;5014824;28;20177;-63
2022/08/14 06:30:12;;;;;;;6.57;6.07;;;25.40;54.00;;;;;;5015329;28;20223;-63
2022/08/14 06:32:38;;;;;;;6.47;5.97;;;25.40;54.00;;;;;;5014737;28;20212;-63
2022/08/14 06:35:07;;;;;;;6.45;5.95;;;25.40;53.90;;;;;;5015091;28;20208;-63
2022/08/14 06:37:43;;;;;;;6.88;6.28;;;25.40;53.90;;;;;;5015338;28;20172;-64
2022/08/14 06:40:11;;;;;;;6.00;5.60;;;25.50;53.90;;;;;;5014658;28;20180;-62
2022/08/14 06:42:37;;;;;;;6.60;6.10;;;25.50;53.90;;;;;;5014812;28;20181;-62
2022/08/14 06:45:03;;;;;;;6.50;6.10;;;25.50;53.90;;;;;;5014068;28;20512;-62
2022/08/14 06:47:28;;;;;;;7.00;6.50;;;25.50;54.50;;;;;;5014099;28;20180;-63
2022/08/14 06:49:54;;;;;;;6.57;6.03;;;25.50;54.40;;;;;;5014891;28;20670;-62
2022/08/14 06:52:21;;;;;;;6.53;6.03;;;25.60;54.40;;;;;;5014815;28;20203;-62
2022/08/14 06:54:47;;;;;;;6.13;5.72;;;25.60;54.40;;;;;;5014073;28;20271;-64
2022/08/14 06:57:12;;;;;;;7.07;6.47;;;25.60;54.30;;;;;;5014788;28;20267;-63
2022/08/14 06:59:38;;;;;;;6.72;6.18;;;25.60;54.60;;;;;;5014368;28;20271;-63
2022/08/14 07:07:38;;;;;;;7.18;6.45;;;25.60;54.40;;;;;;5014578;28;20652;-63
2022/08/14 07:10:04;;;;;;;6.43;5.93;;;25.60;54.30;;;;;;5013699;28;20266;-63
2022/08/14 07:12:30;;;;;;;6.75;6.15;;;25.60;54.30;;;;;;5014684;28;20179;-63
2022/08/14 07:14:55;;;;;;;7.03;6.13;;;25.60;54.20;;;;;;5014000;28;20180;-63
2022/08/14 07:17:21;;;;;;;6.97;6.32;;;25.60;54.20;;;;;;5014173;28;20176;-63
2022/08/14 07:19:46;;;;;;;7.22;6.55;;;25.60;54.10;;;;;;5014005;28;20555;-63
2022/08/14 07:22:12;;;;;;;7.22;6.68;;;25.60;54.10;;;;;;5013900;28;20172;-64
2022/08/14 07:24:37;;;;;;;7.93;7.32;;;25.70;54.10;;;;;;5013902;28;20172;-63
2022/08/14 07:27:03;;;;;;;7.53;6.75;;;25.70;54.20;;;;;;5014017;28;20181;-63
2022/08/14 07:29:28;;;;;;;7.70;6.97;;;25.70;54.10;;;;;;5013554;28;20219;-61
2022/08/14 07:31:54;;;;;;;8.02;7.28;;;25.70;54.10;;;;;;5014037;28;20168;-62
2022/08/14 07:34:19;;;;;;;7.55;6.95;;;25.60;54.00;;;;;;5014143;28;20310;-62
2022/08/14 07:36:45;;;;;;;7.35;6.65;;;25.60;54.10;;;;;;5013110;28;20539;-62
2022/08/14 07:39:10;;;;;;;7.53;6.93;;;25.60;54.10;;;;;;5013982;28;20173;-63
2022/08/14 07:41:36;;;;;;;7.93;7.13;;;25.70;54.30;;;;;;5013976;28;20173;-63
2022/08/14 07:44:02;;;;;;;7.90;7.20;;;25.70;54.30;;;;;;5013194;28;20184;-64
2022/08/14 07:46:27;;;;;;;7.40;6.70;;;25.70;54.40;;;;;;5013791;28;20183;-63
2022/08/14 07:48:53;;;;;;;7.95;6.70;;;25.70;54.40;;;;;;5013776;28;20204;-63
2022/08/14 07:51:19;;;;;;;8.75;7.05;;;25.70;54.50;;;;;;5013020;28;20173;-62
2022/08/14 07:53:44;;;;;;;7.50;6.80;;;25.70;54.40;;;;;;5013510;28;20650;-61
2022/08/14 07:56:10;;;;;;;8.18;7.28;;;25.70;54.60;;;;;;5013824;28;20263;-62
2022/08/14 07:58:37;;;;;;;7.78;6.93;;;25.70;54.50;;;;;;5012823;28;20204;-62
2022/08/14 08:01:03;;;;;;;7.95;7.25;;;25.70;55.10;;;;;;5013514;28;20172;-62
2022/08/14 08:03:29;;;;;;;7.22;6.45;;;25.70;54.40;;;;;;4996137;28;20259;-63
2022/08/14 08:05:54;;;;;;;6.97;6.28;;;25.70;54.90;;;;;;4995105;28;20267;-66
2022/08/14 08:08:20;;;;;;;7.20;6.57;;;25.70;54.40;;;;;;4995835;28;20299;-65
2022/08/14 08:10:45;;;;;;;7.22;6.53;;;25.70;54.60;;;;;;5013435;28;20246;-64
2022/08/14 08:13:17;;;;;;;7.40;6.68;;;25.70;54.60;;;;;;5013012;28;20273;-65
2022/08/14 08:15:55;;;;;;;9.43;7.45;;;25.70;54.50;;;;;;5013546;28;20188;-66
2022/08/14 08:18:21;;;;;;;8.02;7.25;;;25.70;54.60;;;;;;5012647;28;20238;-66
2022/08/14 08:20:49;;;;;;;8.35;7.53;;;25.70;54.50;;;;;;5012869;28;20536;-66
2022/08/14 08:23:15;;;;;;;7.97;7.22;;;25.80;54.60;;;;;;5013374;28;20180;-65
2022/08/14 08:25:42;;;;;;;7.53;6.85;;;25.80;54.70;;;;;;5012797;28;20184;-66
2022/08/14 08:28:11;;;;;;;7.10;6.50;;;25.80;54.70;;;;;;5012997;28;20176;-64
2022/08/14 08:30:38;;;;;;;6.90;6.40;;;25.80;54.80;;;;;;5013148;28;20184;-63
2022/08/14 08:33:04;;;;;;;7.55;6.75;;;25.80;54.80;;;;;;5012281;28;20203;-64
2022/08/14 08:35:33;;;;;;;10.07;6.38;;;25.80;54.80;;;;;;5013059;28;20180;-66
2022/08/14 08:38:04;;;;;;;7.38;6.45;;;25.80;54.70;;;;;;5013189;28;20200;-67
2022/08/14 08:40:35;;;;;;;8.43;6.75;;;25.80;54.60;;;;;;5012240;28;20729;-67
2022/08/14 08:43:05;;;;;;;9.30;7.72;;;25.80;54.70;;;;;;5013135;28;20303;-67
2022/08/14 08:45:30;;;;;;;7.22;6.63;;;25.80;54.60;;;;;;5013033;28;20547;-65
2022/08/14 08:47:56;;;;;;;8.07;7.30;;;25.90;55.00;;;;;;5011835;28;20226;-66
2022/08/14 08:50:40;;;;;;;7.05;6.22;;;25.90;54.80;;;;;;5013074;28;20696;-66
2022/08/14 08:53:07;;;;;;;7.40;6.40;;;25.90;54.80;;;;;;5013021;28;20176;-66
2022/08/14 08:55:38;;;;;;;9.45;6.65;;;25.90;54.60;;;;;;5012255;28;20204;-66
2022/08/14 08:58:05;;;;;;;8.77;6.78;;;25.90;54.60;;;;;;5012892;28;20188;-66
2022/08/14 09:00:32;;;;;;;7.45;6.70;;;25.90;54.60;;;;;;5012421;28;20288;-67
2022/08/14 09:03:09;;;;;;;9.00;6.85;;;25.90;54.60;;;;;;5012764;28;20178;-67
2022/08/14 09:05:36;;;;;;;7.30;6.63;;;25.90;54.50;;;;;;5012997;28;20195;-67
2022/08/14 09:08:15;;;;;;;7.40;6.70;;;25.90;54.50;;;;;;5012093;28;20200;-66
2022/08/14 09:10:41;;;;;;;7.00;6.35;;;25.90;54.50;;;;;;5016902;28;20183;-66
2022/08/14 09:13:07;;;;;;;6.95;6.30;;;25.90;54.50;;;;;;5016844;28;20591;-66
2022/08/14 09:15:32;;;;;;;7.55;6.90;;;25.90;55.20;;;;;;5016129;28;20235;-67
2022/08/14 09:17:58;;;;;;;6.78;6.18;;;25.90;54.60;;;;;;5016586;28;20227;-67
2022/08/14 09:20:23;;;;;;;7.55;6.93;;;26.00;54.60;;;;;;5016630;28;20177;-67
2022/08/14 09:22:49;;;;;;;7.47;6.72;;;25.90;54.40;;;;;;5015872;28;20172;-66
2022/08/14 09:25:16;;;;;;;7.15;6.45;;;25.90;54.70;;;;;;4999234;28;20311;-66
2022/08/14 09:27:41;;;;;;;7.65;6.95;;;25.90;54.70;;;;;;5016747;28;20183;-66
2022/08/14 09:30:08;;;;;;;6.90;6.40;;;25.90;54.50;;;;;;5015812;28;20212;-65
2022/08/14 09:32:48;;;;;;;6.82;6.22;;;26.00;54.70;;;;;;4999180;28;20173;-66
2022/08/14 09:35:16;;;;;;;6.95;6.40;;;26.00;54.80;;;;;;5016540;28;20184;-66
2022/08/14 09:38:09;;;;;;;7.10;6.50;;;26.00;54.50;;;;;;4998087;28;20192;-66
2022/08/14 09:40:47;;;;;;;7.50;6.68;;;26.00;54.50;;;;;;4998901;28;20180;-68
2022/08/14 09:43:34;;;;;;;7.30;6.53;;;26.00;54.50;;;;;;4998322;28;20187;-67
2022/08/14 09:46:00;;;;;;;7.30;6.70;;;26.00;54.50;;;;;;4998471;28;20199;-66
2022/08/14 09:48:25;;;;;;;7.07;6.47;;;26.00;54.50;;;;;;4998673;28;20208;-66
2022/08/14 09:50:55;;;;;;;8.65;6.70;;;26.00;54.50;;;;;;5015189;28;20646;-66
2022/08/14 09:53:36;;;;;;;7.75;7.15;;;26.00;54.60;;;;;;5016240;28;20180;-65
2022/08/14 09:56:03;;;;;;;7.03;6.40;;;26.00;54.60;;;;;;5015973;28;20183;-66
2022/08/14 09:58:37;;;;;;;7.38;6.88;;;26.00;54.60;;;;;;5015158;28;20531;-66
2022/08/14 10:01:08;;;;;;;8.20;7.40;;;26.00;54.50;;;;;;5015952;28;20211;-67
2022/08/14 10:03:35;;;;;;;6.63;6.13;;;26.00;54.50;;;;;;5015941;28;20200;-67
2022/08/14 10:06:12;;;;;;;8.00;7.20;;;26.00;54.40;;;;;;5015374;28;20669;-66
2022/08/14 10:08:47;;;;;;;7.00;6.38;;;26.10;54.20;;;;;;5015633;28;20216;-66
2022/08/14 10:11:28;;;;;;;7.38;6.78;;;26.10;54.20;;;;;;5015031;28;20222;-66
2022/08/14 10:13:57;;;;;;;6.78;6.28;;;26.10;54.20;;;;;;5015664;28;20234;-65
2022/08/14 10:16:25;;;;;;;7.20;6.57;;;26.10;54.30;;;;;;5015545;28;20172;-65
2022/08/14 10:19:24;;;;;;;6.72;6.13;;;26.10;54.40;;;;;;5014468;28;20224;-65
2022/08/14 10:21:59;;;;;;;6.70;6.20;;;26.10;54.50;;;;;;5003829;28;20234;-65
2022/08/14 10:24:32;;;;;;;7.00;6.35;;;26.10;54.50;;;;;;5015331;28;20642;-65
2022/08/14 10:26:59;;;;;;;6.45;5.95;;;26.20;54.40;;;;;;5014790;28;20251;-65
2022/08/14 10:29:36;;;;;;;6.97;6.28;;;26.10;54.50;;;;;;5015465;28;20281;-64
2022/08/14 10:32:03;;;;;;;6.97;6.38;;;26.20;54.60;;;;;;5014529;28;20198;-65
2022/08/14 10:34:33;;;;;;;6.55;6.05;;;26.10;54.20;;;;;;5015539;28;20187;-64
2022/08/14 10:37:06;;;;;;;6.80;6.28;;;26.10;54.20;;;;;;5015162;28;20184;-65
2022/08/14 10:39:31;;;;;;;7.10;6.50;;;26.20;54.10;;;;;;5014575;28;20199;-65
2022/08/14 10:42:15;;;;;;;6.90;6.30;;;26.20;54.30;;;;;;4997510;28;20639;-66
2022/08/14 10:44:44;;;;;;;7.20;6.60;;;26.20;54.40;;;;;;5015197;28;20176;-65
2022/08/14 10:47:10;;;;;;;6.43;5.88;;;26.20;54.20;;;;;;5014674;28;20263;-66
2022/08/14 10:49:37;;;;;;;7.13;6.53;;;26.20;54.10;;;;;;5014765;28;20303;-65
2022/08/14 10:52:07;;;;;;;6.90;6.40;;;26.30;54.10;;;;;;5014838;28;20185;-65
2022/08/14 10:54:44;;;;;;;6.43;5.85;;;26.20;53.90;;;;;;5014118;28;20188;-64
2022/08/14 10:57:26;;;;;;;6.80;6.30;;;26.30;54.40;;;;;;5015001;28;20180;-65
2022/08/14 10:59:56;;;;;;;6.70;6.10;;;26.30;54.10;;;;;;5014272;28;20176;-65
2022/08/14 11:02:30;;;;;;;6.50;5.90;;;26.30;54.50;;;;;;5014626;28;20177;-65
2022/08/14 11:05:00;;;;;;;6.25;5.75;;;26.30;54.20;;;;;;5014598;28;20238;-65
2022/08/14 11:07:26;;;;;;;6.80;6.30;;;26.30;54.50;;;;;;5013901;28;20222;-64
2022/08/14 11:09:54;;;;;;;6.68;6.18;;;26.30;54.00;;;;;;5014579;28;20220;-64
2022/08/14 11:12:20;;;;;;;6.68;5.95;;;26.30;54.30;;;;;;5014723;28;20169;-64
2022/08/14 11:14:59;;;;;;;6.65;6.05;;;26.30;54.30;;;;;;4996401;28;20256;-65
2022/08/14 11:17:26;;;;;;;6.75;6.13;;;26.30;54.30;;;;;;5014572;28;20204;-65
2022/08/14 11:19:54;;;;;;;6.93;6.22;;;26.30;54.30;;;;;;5014108;28;20228;-65
2022/08/14 11:22:19;;;;;;;6.45;6.03;;;26.30;54.40;;;;;;5013874;28;20183;-65
2022/08/14 11:24:45;;;;;;;6.30;5.80;;;26.30;54.40;;;;;;4996870;28;20173;-65
2022/08/14 11:27:12;;;;;;;6.32;5.82;;;26.30;54.00;;;;;;4997076;28;20172;-65
2022/08/14 11:29:37;;;;;;;6.75;6.25;;;26.30;54.30;;;;;;4996130;28;20212;-64
2022/08/14 11:32:03;;;;;;;6.75;6.15;;;26.30;54.00;;;;;;4995965;28;20177;-65
2022/08/14 11:34:29;;;;;;;6.00;5.60;;;26.40;54.30;;;;;;5014116;28;20181;-64
2022/08/14 11:36:55;;;;;;;7.07;6.40;;;26.40;54.30;;;;;;5013285;28;20179;-65
2022/08/14 11:39:21;;;;;;;6.43;5.82;;;26.40;53.90;;;;;;5014136;28;20541;-65
2022/08/14 11:41:46;;;;;;;6.10;5.70;;;26.40;53.90;;;;;;5013886;28;20257;-65
2022/08/14 11:44:12;;;;;;;6.05;5.65;;;26.40;54.10;;;;;;5013326;28;20617;-66
2022/08/14 11:46:39;;;;;;;6.78;6.20;;;26.40;54.00;;;;;;5013935;28;20643;-66
2022/08/14 11:49:04;;;;;;;6.45;5.95;;;26.50;54.00;;;;;;4995661;28;20288;-65
2022/08/14 11:51:30;;;;;;;6.28;5.68;;;26.50;53.90;;;;;;4996517;28;20185;-64
2022/08/14 11:54:06;;;;;;;6.57;6.07;;;26.50;53.80;;;;;;4996317;28;20203;-64
2022/08/14 11:56:35;;;;;;;6.15;5.75;;;26.50;53.70;;;;;;5013100;28;20674;-65
2022/08/14 11:59:01;;;;;;;6.10;5.60;;;26.60;53.70;;;;;;5013624;28;20185;-65
2022/08/14 12:01:29;;;;;;;6.28;5.78;;;26.60;53.70;;;;;;5013669;28;20584;-65
2022/08/14 12:04:06;;;;;;;6.43;5.93;;;26.60;53.60;;;;;;5012770;28;20234;-65
2022/08/14 12:06:32;;;;;;;6.38;5.88;;;26.60;53.50;;;;;;5013753;28;20230;-64
2022/08/14 12:08:57;;;;;;;6.47;5.97;;;26.60;53.60;;;;;;4995962;28;20254;-64
2022/08/14 12:11:23;;;;;;;5.85;5.43;;;26.70;53.60;;;;;;5012862;28;20165;-65
2022/08/14 12:13:49;;;;;;;5.72;5.32;;;26.70;53.50;;;;;;5013327;28;20176;-65
2022/08/14 12:16:20;;;;;;;5.95;5.55;;;26.80;53.60;;;;;;5013421;28;20177;-66
2022/08/14 12:18:47;;;;;;;6.40;5.90;;;26.80;53.50;;;;;;5012317;28;20275;-65
2022/08/14 12:21:23;;;;;;;5.68;5.25;;;26.80;53.40;;;;;;4996207;28;20607;-66
2022/08/14 12:24:09;;;;;;;6.03;5.63;;;26.80;53.40;;;;;;5013344;28;20203;-65
2022/08/14 12:26:36;;;;;;;5.40;5.00;;;26.90;53.40;;;;;;5012663;28;20742;-65
2022/08/14 12:29:14;;;;;;;6.07;5.60;;;26.90;53.40;;;;;;5013264;28;20223;-64
2022/08/14 12:31:41;;;;;;;6.32;5.82;;;26.90;53.30;;;;;;5012832;28;20187;-64
2022/08/14 12:34:07;;;;;;;5.60;5.10;;;26.90;53.30;;;;;;5013021;28;20199;-64
2022/08/14 12:36:33;;;;;;;5.90;5.20;;;26.90;53.20;;;;;;5013297;28;20212;-65
2022/08/14 12:38:59;;;;;;;5.47;5.07;;;27.00;53.20;;;;;;5012312;28;20204;-65
2022/08/14 12:41:29;;;;;;;5.50;5.10;;;27.00;53.20;;;;;;5013018;28;20259;-65
2022/08/14 12:43:56;;;;;;;6.60;6.05;;;27.00;53.10;;;;;;5012817;28;20711;-66
2022/08/14 12:46:23;;;;;;;6.00;5.50;;;27.00;53.20;;;;;;5012509;28;20216;-65
2022/08/14 12:48:49;;;;;;;5.70;5.28;;;27.10;53.10;;;;;;5012839;28;20258;-65
2022/08/14 12:51:24;;;;;;;5.75;5.35;;;27.10;53.10;;;;;;4995664;28;20176;-65
2022/08/14 12:53:50;;;;;;;5.68;5.22;;;27.10;53.00;;;;;;5012216;28;20596;-64
2022/08/14 12:56:17;;;;;;;5.70;5.30;;;27.20;53.00;;;;;;4995783;28;20180;-65
2022/08/14 12:58:49;;;;;;;5.65;5.25;;;27.20;52.90;;;;;;5013112;28;20180;-64
2022/08/14 13:01:19;;;;;;;5.72;5.32;;;27.20;52.70;;;;;;5012363;28;20184;-64
2022/08/14 13:03:45;;;;;;;5.95;5.45;;;27.30;52.60;;;;;;5012932;28;20219;-64
2022/08/14 13:06:11;;;;;;;5.63;5.22;;;27.30;52.70;;;;;;5013080;28;20176;-64
2022/08/14 13:08:36;;;;;;;5.53;5.13;;;27.40;52.70;;;;;;5012185;28;20593;-64
2022/08/14 13:11:06;;;;;;;5.40;5.00;;;27.40;52.70;;;;;;5012919;28;20181;-64
2022/08/14 13:13:33;;;;;;;5.68;5.28;;;27.40;52.70;;;;;;4995458;28;20183;-64